createdAt,value
2023-04-18T12:34:35.337Z,58025.1445
2023-04-18T12:35:36.319Z,96253.3359
2023-04-18T12:36:37.353Z,99540.0000
2023-04-18T12:37:38.362Z,72944.0000
2023-04-18T12:38:39.370Z,85474.6641
2023-04-18T12:39:40.314Z,49976.0000
2023-04-18T12:40:41.289Z,38553.3320
2023-04-18T12:41:42.255Z,54738.6680
2023-04-18T12:42:43.221Z,67568.0000
2023-04-18T12:43:44.212Z,32616.0000
2023-04-18T12:44:46.956Z,27188.0000
2023-04-18T12:45:46.326Z,26277.5645
2023-04-18T12:46:47.351Z,29008.0000
2023-04-18T12:47:48.393Z,48813.3320
2023-04-18T12:48:49.378Z,74914.6641
2023-04-18T12:49:50.438Z,52960.0000
2023-04-18T12:50:51.374Z,85378.6641
2023-04-18T12:51:52.379Z,68825.3359
2023-04-18T12:52:53.429Z,33238.6680
2023-04-18T12:53:54.405Z,33769.3320
2023-04-18T12:54:55.362Z,44121.3320
2023-04-18T12:55:56.351Z,78045.3359
2023-04-18T12:56:57.327Z,81440.0000
2023-04-18T12:57:58.369Z,77958.6641
2023-04-18T12:58:59.300Z,63200.0000
2023-04-18T13:00:00.310Z,93612.0000
2023-04-18T13:01:01.309Z,93970.6641
2023-04-18T13:02:02.317Z,87150.6641
2023-04-18T13:03:03.499Z,66534.6641
2023-04-18T13:04:12.447Z,26849.3340
2023-04-18T13:05:06.341Z,24994.9082
2023-04-18T13:06:08.410Z,28250.6660
2023-04-18T13:07:09.337Z,38074.6680
2023-04-18T13:08:17.054Z,53326.6680
2023-04-18T13:09:12.363Z,80221.0938
2023-04-18T13:10:13.453Z,84053.3359
2023-04-18T13:11:14.471Z,81572.0000
2023-04-18T13:12:15.410Z,61212.0000
2023-04-18T13:13:16.480Z,39182.6680
2023-04-18T13:14:17.465Z,27574.6660
2023-04-18T13:15:18.428Z,27653.3340
2023-04-18T13:16:19.491Z,37288.0000
2023-04-18T13:17:20.490Z,82192.0000
2023-04-18T13:18:21.473Z,80000.0000
2023-04-18T13:19:22.415Z,75110.6641
2023-04-18T13:20:23.493Z,78286.6641
2023-04-18T13:21:24.421Z,73237.3359
2023-04-18T13:22:25.412Z,82364.0000
2023-04-18T13:23:26.419Z,82917.3359
2023-04-18T13:24:27.383Z,71089.3359
2023-04-18T13:25:28.390Z,69180.0000
2023-04-18T13:26:29.336Z,68660.0000
2023-04-18T13:27:30.317Z,63322.6680
2023-04-18T13:28:31.009Z,55387.4297
2023-04-18T13:29:31.197Z,73749.3359
2023-04-18T13:30:32.038Z,74006.5859
2023-04-18T13:31:32.827Z,75209.4141
2023-04-18T13:32:33.676Z,78019.7656
2023-04-18T13:33:34.396Z,77985.8828
2023-04-18T13:34:35.129Z,78667.2969
2023-04-18T13:35:35.889Z,79446.5859
2023-04-18T13:36:36.635Z,80062.1172
2023-04-18T13:37:37.630Z,78149.6484
2023-04-18T13:38:38.400Z,70505.4141
2023-04-18T13:39:39.644Z,56390.3984
2023-04-18T13:40:40.361Z,76267.2969
2023-04-18T13:41:41.131Z,73385.4141
2023-04-18T13:42:41.836Z,72020.7031
2023-04-18T13:43:42.829Z,70492.2344
2023-04-18T13:44:43.583Z,68980.7031
2023-04-18T13:45:44.439Z,68263.5312
2023-04-18T13:46:45.417Z,66808.4688
2023-04-18T13:47:46.131Z,65443.7656
2023-04-18T13:48:46.887Z,63616.0000
2023-04-18T13:49:47.601Z,61165.1758
2023-04-18T13:50:48.344Z,61116.2344
2023-04-18T13:51:49.115Z,55905.8828
2023-04-18T13:52:49.808Z,55544.4688
2023-04-18T13:53:50.579Z,55147.2930
2023-04-18T13:54:51.343Z,60427.2930
2023-04-18T13:55:52.061Z,63913.4102
2023-04-18T13:56:52.803Z,67809.8828
2023-04-18T13:57:53.561Z,69835.2969
2023-04-18T13:58:54.290Z,72423.5312
2023-04-18T13:59:55.010Z,71036.2344
2023-04-18T14:00:56.318Z,68744.5312
2023-04-18T14:01:57.167Z,66454.5859
2023-04-18T14:02:58.059Z,64837.6484
2023-04-18T14:03:59.037Z,62767.0586
2023-04-18T14:05:00.037Z,60429.1758
2023-04-18T14:06:00.859Z,62219.2930
2023-04-18T14:07:01.659Z,61844.7070
2023-04-18T14:08:02.397Z,60600.4688
2023-04-18T14:09:03.369Z,58494.1172
2023-04-18T14:10:04.106Z,57121.8828
2023-04-18T14:11:04.873Z,54951.5312
2023-04-18T14:12:05.593Z,52609.8828
2023-04-18T14:13:06.334Z,53682.8242
2023-04-18T14:14:07.073Z,55937.8828
2023-04-18T14:15:07.890Z,56390.3984
2023-04-18T14:16:08.686Z,53882.3516
2023-04-18T14:17:09.426Z,51149.1758
2023-04-18T14:18:10.205Z,52862.1172
2023-04-18T14:19:11.036Z,55981.1758
2023-04-18T14:20:11.818Z,56692.7070
2023-04-18T14:21:12.592Z,51777.8828
2023-04-18T14:22:14.375Z,28923.7324
2023-04-18T14:23:15.100Z,55028.7070
2023-04-18T14:24:15.870Z,46944.0000
2023-04-18T14:25:16.615Z,53007.0586
2023-04-18T14:26:17.358Z,54785.8828
2023-04-18T14:27:18.105Z,43207.5312
2023-04-18T14:28:18.844Z,48536.4688
2023-04-18T14:29:19.582Z,45882.3516
2023-04-18T14:30:20.318Z,38889.4102
2023-04-18T14:31:21.125Z,17744.7051
2023-04-18T14:32:21.902Z,20396.9414
2023-04-18T14:33:22.633Z,18706.8242
2023-04-18T14:34:23.390Z,41189.6484
2023-04-18T14:35:24.118Z,42206.1172
2023-04-18T14:36:24.854Z,51237.6484
2023-04-18T14:37:25.613Z,51589.6484
2023-04-18T14:38:26.346Z,53579.2930
2023-04-18T14:39:27.119Z,54081.8828
2023-04-18T14:40:27.888Z,55533.1758
2023-04-18T14:41:28.631Z,57737.4102
2023-04-18T14:42:29.410Z,57428.7070
2023-04-18T14:43:30.156Z,56161.8828
2023-04-18T14:44:30.949Z,59043.7656
2023-04-18T14:45:31.693Z,59610.3516
2023-04-18T14:46:32.489Z,50900.7070
2023-04-18T14:47:33.274Z,55288.4688
2023-04-18T14:48:34.010Z,58492.2344
2023-04-18T14:49:34.758Z,41818.3516
2023-04-18T14:50:35.501Z,53592.4688
2023-04-18T14:51:36.306Z,45641.4102
2023-04-18T14:52:37.058Z,23371.2949
2023-04-18T14:53:37.805Z,19203.7656
2023-04-18T14:54:38.581Z,18550.5879
2023-04-18T14:55:39.317Z,44139.2930
2023-04-18T14:56:40.178Z,52227.7656
2023-04-18T14:57:40.939Z,52641.8828
2023-04-18T14:58:41.696Z,55100.2344
2023-04-18T14:59:42.480Z,56754.8242
2023-04-18T15:00:43.218Z,57803.2930
2023-04-18T15:01:43.974Z,58287.0586
2023-04-18T15:02:44.987Z,55902.1172
2023-04-18T15:03:46.007Z,53056.0000
2023-04-18T15:04:46.976Z,52880.9414
2023-04-18T15:05:47.756Z,53334.5898
2023-04-18T15:06:48.543Z,54612.7070
2023-04-18T15:07:49.275Z,56880.9414
2023-04-18T15:08:50.018Z,59271.5312
2023-04-18T15:09:50.806Z,59777.8828
2023-04-18T15:10:51.570Z,59457.8828
2023-04-18T15:11:59.846Z,59787.2930
2023-04-18T15:13:00.586Z,58857.4102
2023-04-18T15:14:01.807Z,57131.2930
2023-04-18T15:15:02.559Z,56438.5898
2023-04-18T15:16:03.383Z,53374.1172
2023-04-18T15:17:04.162Z,49940.7070
2023-04-18T15:18:04.992Z,49918.1172
2023-04-18T15:19:05.707Z,51201.8828
2023-04-18T15:20:06.477Z,52434.8242
2023-04-18T15:21:07.208Z,52525.1758
2023-04-18T15:22:07.949Z,52069.6484
2023-04-18T15:23:08.693Z,53519.0586
2023-04-18T15:24:09.450Z,53936.9414
2023-04-18T15:25:10.278Z,54336.0000
2023-04-18T15:26:10.990Z,54405.6484
2023-04-18T15:28:12.106Z,53846.5898
2023-04-18T15:29:14.364Z,53850.3516
2023-04-18T15:30:15.108Z,52048.9414
2023-04-18T15:31:15.986Z,50723.7656
2023-04-18T15:32:16.875Z,51572.7070
2023-04-18T15:33:17.577Z,55068.2344
2023-04-18T15:34:18.321Z,59808.0000
2023-04-18T15:35:19.078Z,63501.1758
2023-04-18T15:36:19.838Z,63843.7656
2023-04-18T15:37:20.582Z,60555.2930
2023-04-18T15:38:21.325Z,54456.4688
2023-04-18T15:39:22.044Z,45413.6484
2023-04-18T15:40:22.863Z,32344.4707
2023-04-18T15:41:23.650Z,19363.7656
2023-04-18T15:42:24.409Z,17216.0000
2023-04-18T15:43:25.202Z,16527.0586
2023-04-18T15:44:25.965Z,16792.4707
2023-04-18T15:45:26.785Z,32122.3535
2023-04-18T15:46:27.549Z,32796.2344
2023-04-18T15:47:28.293Z,30716.2344
2023-04-18T15:48:29.078Z,26522.3535
2023-04-18T15:49:29.857Z,40011.2930
2023-04-18T15:50:32.160Z,40986.3516
2023-04-18T15:51:31.651Z,35892.0000
2023-04-18T15:52:32.460Z,16885.4121
2023-04-18T15:53:33.247Z,28688.9414
2023-04-18T15:54:34.025Z,40702.1172
2023-04-18T15:55:34.827Z,38592.0000
2023-04-18T15:56:35.572Z,38706.8242
2023-04-18T15:57:36.355Z,39533.1758
2023-04-18T15:58:37.115Z,38893.1758
2023-04-18T15:59:37.927Z,38979.7656
2023-04-18T16:00:43.186Z,39388.0000
2023-04-18T16:01:45.835Z,39156.7070
2023-04-18T16:02:47.124Z,39232.0000
2023-04-18T16:03:48.072Z,38044.2344
2023-04-18T16:04:48.884Z,37292.8008
2023-04-18T16:05:49.648Z,35307.2930
2023-04-18T16:06:50.425Z,33358.9336
2023-04-18T16:07:51.254Z,33206.5898
2023-04-18T16:08:52.007Z,32231.5293
2023-04-18T16:09:52.828Z,20984.4707
2023-04-18T16:10:53.599Z,12404.9414
2023-04-18T16:11:54.386Z,12684.4707
2023-04-18T16:12:55.157Z,13039.0586
2023-04-18T16:13:55.947Z,13642.8232
2023-04-18T16:14:56.702Z,24281.4121
2023-04-18T16:15:57.746Z,28911.0586
2023-04-18T16:16:58.547Z,28207.0586
2023-04-18T16:17:59.377Z,25398.5879
2023-04-18T16:19:00.124Z,16425.8828
2023-04-18T16:20:00.867Z,15026.5879
2023-04-18T16:21:01.765Z,19627.7656
2023-04-18T16:22:02.531Z,24641.8828
2023-04-18T16:23:03.279Z,24092.2344
2023-04-18T16:24:04.292Z,22908.2344
2023-04-18T16:25:05.083Z,21831.5293
2023-04-18T16:26:05.888Z,21492.7051
2023-04-18T16:27:06.630Z,21731.7656
2023-04-18T16:28:07.397Z,21671.5293
2023-04-18T16:29:08.189Z,21063.5293
2023-04-18T16:30:08.986Z,20679.5293
2023-04-18T16:31:09.994Z,20146.8242
2023-04-18T16:32:10.761Z,19631.0586
2023-04-18T16:33:11.627Z,19623.5293
2023-04-18T16:34:12.511Z,19620.2676
2023-04-18T16:35:13.378Z,20060.2344
2023-04-18T16:36:14.473Z,20717.1758
2023-04-18T16:37:15.225Z,20848.9414
2023-04-18T16:38:16.023Z,20850.8242
2023-04-18T16:39:16.846Z,21257.4121
2023-04-18T16:40:17.624Z,20939.2949
2023-04-18T16:41:18.414Z,20271.0586
2023-04-18T16:42:19.196Z,19083.2949
2023-04-18T16:43:19.948Z,17991.5293
2023-04-18T16:44:20.720Z,17217.8828
2023-04-18T16:45:21.474Z,16541.8672
2023-04-18T16:46:22.322Z,15623.5293
2023-04-18T16:47:23.111Z,14375.5293
2023-04-18T16:48:23.899Z,13261.1768
2023-04-18T16:49:24.686Z,12933.6475
2023-04-18T16:50:25.500Z,12937.6475
2023-04-18T16:51:26.317Z,13024.7061
2023-04-18T16:52:27.105Z,12842.5879
2023-04-18T16:53:28.206Z,12529.4121
2023-04-18T16:54:28.962Z,12306.8232
2023-04-18T16:55:29.759Z,12274.1172
2023-04-18T16:56:30.726Z,12375.0586
2023-04-18T16:57:31.508Z,11960.2354
2023-04-18T16:58:32.269Z,11425.6475
2023-04-18T16:59:33.058Z,10826.5879
2023-04-18T17:00:33.821Z,10328.9414
2023-04-18T17:01:34.705Z,10215.7646
2023-04-18T17:02:35.522Z,10003.0586
2023-04-18T17:03:36.798Z,9449.8828
2023-04-18T17:04:37.756Z,8912.2354
2023-04-18T17:05:38.573Z,8595.5293
2023-04-18T17:06:39.398Z,8425.4121
2023-04-18T17:07:40.174Z,8218.5879
2023-04-18T17:08:40.980Z,7970.1177
2023-04-18T17:09:41.734Z,7894.5884
2023-04-18T17:10:42.542Z,8079.0586
2023-04-18T17:11:43.482Z,8195.7646
2023-04-18T17:12:44.294Z,7710.1177
2023-04-18T17:13:45.054Z,6789.8823
2023-04-18T17:14:45.854Z,6028.2354
2023-04-18T17:15:46.699Z,5585.6470
2023-04-18T17:16:47.736Z,5390.8237
2023-04-18T17:17:48.953Z,5297.8823
2023-04-18T17:18:49.963Z,5307.7646
2023-04-18T17:19:50.729Z,5331.7646
2023-04-18T17:20:51.517Z,5296.4707
2023-04-18T17:21:52.351Z,5172.7061
2023-04-18T17:22:53.117Z,4992.4707
2023-04-18T17:23:53.893Z,4825.8823
2023-04-18T17:24:54.676Z,4678.8237
2023-04-18T17:25:55.780Z,4530.1177
2023-04-18T17:26:56.570Z,4395.7646
2023-04-18T17:27:57.413Z,4302.3530
2023-04-18T17:28:57.309Z,4210.5713
2023-04-18T17:29:58.086Z,4044.7058
2023-04-18T17:30:59.115Z,3891.2942
2023-04-18T17:31:59.910Z,3760.9412
2023-04-18T17:33:00.712Z,3622.3530
2023-04-18T17:34:01.596Z,3454.5881
2023-04-18T17:35:02.351Z,3303.5293
2023-04-18T17:36:04.319Z,3187.2942
2023-04-18T17:37:03.234Z,3089.7500
2023-04-18T17:38:04.024Z,2994.8235
2023-04-18T17:39:04.805Z,2892.7058
2023-04-18T17:40:05.588Z,2785.4119
2023-04-18T17:41:06.370Z,2686.3530
2023-04-18T17:42:07.172Z,2600.2354
2023-04-18T17:43:07.958Z,2519.7646
2023-04-18T17:44:08.836Z,2434.5881
2023-04-18T17:45:09.603Z,2350.3530
2023-04-18T17:46:17.490Z,2281.4119
2023-04-18T17:47:18.401Z,2218.8235
2023-04-18T17:48:26.930Z,2162.8235
2023-04-18T17:49:20.637Z,2112.0000
2023-04-18T17:50:21.414Z,2074.5881
2023-04-18T17:51:22.426Z,2034.5883
2023-04-18T17:52:23.227Z,1991.5294
2023-04-18T17:53:24.034Z,1934.8235
2023-04-18T17:54:24.833Z,1868.2354
2023-04-18T17:55:25.637Z,1792.0000
2023-04-18T17:56:26.423Z,1708.7059
2023-04-18T17:57:27.235Z,1627.0588
2023-04-18T17:58:27.995Z,1549.4117
2023-04-18T17:59:28.773Z,1469.8823
2023-04-18T18:00:29.557Z,1391.7646
2023-04-18T18:01:30.474Z,1315.2941
2023-04-18T18:02:31.471Z,1239.5294
2023-04-18T18:03:32.498Z,1167.7646
2023-04-18T18:04:33.467Z,1096.4706
2023-04-18T18:05:34.341Z,1030.3529
2023-04-18T18:06:35.119Z,964.0000
2023-04-18T18:07:35.906Z,899.7647
2023-04-18T18:08:37.072Z,840.0000
2023-04-18T18:09:37.867Z,782.5883
2023-04-18T18:10:38.617Z,726.5883
2023-04-18T18:11:39.384Z,672.9412
2023-04-18T18:12:40.381Z,619.7647
2023-04-18T18:13:41.180Z,566.8235
2023-04-18T18:14:41.994Z,517.8823
2023-04-18T18:15:42.744Z,471.7647
2023-04-18T18:16:43.567Z,427.5294
2023-04-18T18:17:44.407Z,387.2941
2023-04-18T18:18:45.235Z,348.9412
2023-04-18T18:19:46.028Z,312.9412
2023-04-18T18:20:46.793Z,280.0000
2023-04-18T18:21:47.588Z,249.1765
2023-04-18T18:22:48.373Z,221.4118
2023-04-18T18:23:49.153Z,195.7647
2023-04-18T18:24:49.928Z,172.9412
2023-04-18T18:25:50.711Z,152.2353
2023-04-18T18:26:51.832Z,132.7059
2023-04-18T18:27:52.676Z,115.2941
2023-04-18T18:28:53.418Z,99.0588
2023-04-18T18:29:54.198Z,84.7059
2023-04-18T18:30:54.990Z,71.5294
2023-04-18T18:31:55.721Z,60.9412
2023-04-18T18:32:56.528Z,51.5294
2023-04-18T18:33:57.312Z,43.5294
2023-04-18T18:34:58.110Z,36.9412
2023-04-18T18:35:58.880Z,30.8235
2023-04-18T18:36:59.653Z,25.4118
2023-04-18T18:38:00.702Z,21.6471
2023-04-18T18:39:01.485Z,18.1176
2023-04-18T18:40:02.261Z,15.0588
2023-04-18T18:41:03.926Z,12.7059
2023-04-18T18:42:04.719Z,11.0588
2023-04-18T18:43:05.538Z,8.7059
2023-04-18T18:44:06.292Z,7.2941
2023-04-18T18:45:07.048Z,6.3529
2023-04-18T18:46:07.856Z,5.4118
2023-04-18T18:47:08.606Z,4.7059
2023-04-18T18:48:09.644Z,3.5294
2023-04-18T18:49:10.430Z,2.8235
2023-04-18T18:50:11.177Z,4.0000
2023-04-18T18:51:11.989Z,0.0000
2023-04-18T18:52:12.794Z,1.6471
2023-04-18T18:53:13.575Z,4.0000
2023-04-18T18:54:14.347Z,1.6471
2023-04-18T18:55:15.154Z,0.0000
2023-04-18T18:56:15.925Z,0.0000
2023-04-18T18:57:16.683Z,0.0000
2023-04-18T18:58:17.477Z,0.0000
2023-04-18T18:59:18.250Z,0.0000
2023-04-18T19:00:19.032Z,0.0000
2023-04-18T19:01:19.839Z,0.0000
2023-04-18T19:02:20.818Z,0.0000
2023-04-18T19:03:21.885Z,0.0000
2023-04-18T19:04:22.869Z,0.0000
2023-04-18T19:05:23.889Z,0.0000
2023-04-18T19:06:24.660Z,0.0000
2023-04-18T19:07:25.525Z,0.0000
2023-04-18T19:08:26.854Z,0.0000
2023-04-18T19:09:27.600Z,0.0000
2023-04-18T19:10:28.366Z,0.0000
2023-04-18T19:11:29.174Z,0.0000
2023-04-18T19:12:29.920Z,0.0000
2023-04-18T19:13:30.872Z,0.0000
2023-04-18T19:14:31.634Z,0.0000
2023-04-18T19:15:32.408Z,0.0000
2023-04-18T19:16:33.239Z,0.0000
2023-04-18T19:17:34.034Z,0.0000
2023-04-18T19:18:34.804Z,0.0000
2023-04-18T19:19:35.572Z,0.0000
2023-04-18T19:20:36.394Z,0.0000
2023-04-18T19:21:37.206Z,0.0000
2023-04-18T19:22:38.006Z,0.0000
2023-04-18T19:23:38.857Z,0.0000
2023-04-18T19:24:39.630Z,0.0000
2023-04-18T19:25:40.448Z,0.0000
2023-04-18T19:26:41.212Z,0.0000
2023-04-18T19:27:41.996Z,0.0000
2023-04-18T19:28:42.784Z,0.0000
2023-04-18T19:29:43.575Z,0.0000
2023-04-18T19:30:44.376Z,0.0000
2023-04-18T19:31:45.143Z,0.0000
2023-04-18T19:32:45.956Z,0.0000
2023-04-18T19:33:46.729Z,0.0000
2023-04-18T19:34:47.542Z,0.0000
2023-04-18T19:35:48.333Z,0.0000
2023-04-18T19:36:49.109Z,0.0000
2023-04-18T19:37:49.886Z,0.0000
2023-04-18T19:38:50.706Z,0.0000
2023-04-18T19:39:51.495Z,0.0000
2023-04-18T19:40:52.275Z,0.0000
2023-04-18T19:41:53.039Z,0.0000
2023-04-18T19:42:54.073Z,0.0000
2023-04-18T19:43:54.862Z,0.0000
2023-04-18T19:44:55.636Z,0.0000
2023-04-18T19:45:56.469Z,0.0000
2023-04-18T19:46:57.240Z,0.0000
2023-04-18T19:47:58.075Z,0.0000
2023-04-18T19:48:58.833Z,0.0000
2023-04-18T19:49:59.619Z,0.0000
2023-04-18T19:51:00.396Z,0.0000
2023-04-18T19:52:01.209Z,0.0000
2023-04-18T19:53:02.016Z,0.0000
2023-04-18T19:54:02.815Z,0.0000
2023-04-18T19:55:03.586Z,0.0000
2023-04-18T19:56:04.352Z,0.0000
2023-04-18T19:57:05.118Z,0.0000
2023-04-18T19:58:05.914Z,0.0000
2023-04-18T19:59:06.701Z,0.0000
2023-04-18T20:00:07.460Z,0.0000
2023-04-18T20:01:08.311Z,0.0000
2023-04-18T20:02:09.133Z,0.0000
2023-04-18T20:03:10.064Z,0.0000
2023-04-18T20:04:11.162Z,0.0000
2023-04-18T20:05:12.133Z,0.0000
2023-04-18T20:06:13.031Z,0.0000
2023-04-18T20:07:13.786Z,0.0000
2023-04-18T20:08:14.581Z,0.0000
2023-04-18T20:09:15.636Z,0.0000
2023-04-18T20:10:16.853Z,0.0000
2023-04-18T20:11:17.609Z,0.0000
2023-04-18T20:12:18.415Z,0.0000
2023-04-18T20:13:19.418Z,0.0000
2023-04-18T20:14:20.198Z,0.0000
2023-04-18T20:15:20.997Z,0.0000
2023-04-18T20:16:21.782Z,0.0000
2023-04-18T20:17:22.592Z,0.0000
2023-04-18T20:18:23.435Z,0.0000
2023-04-18T20:19:24.244Z,0.0000
2023-04-18T20:20:25.003Z,0.0000
2023-04-18T20:21:25.754Z,0.0000
2023-04-18T20:22:26.548Z,0.0000
2023-04-18T20:23:27.564Z,0.0000
2023-04-18T20:24:28.380Z,0.0000
2023-04-18T20:25:29.210Z,0.0000
2023-04-18T20:26:29.952Z,0.0000
2023-04-18T20:27:30.744Z,0.0000
2023-04-18T20:28:38.644Z,0.0000
2023-04-18T20:29:39.444Z,0.0000
2023-04-18T20:30:40.260Z,0.0000
2023-04-18T20:31:41.026Z,0.0000
2023-04-18T20:32:41.851Z,0.0000
2023-04-18T20:33:42.585Z,0.0000
2023-04-18T20:34:51.940Z,0.0000
2023-04-18T20:35:52.733Z,0.0000
2023-04-18T20:36:53.516Z,0.0000
2023-04-18T20:37:54.306Z,0.0000
2023-04-18T20:38:55.095Z,0.0000
2023-04-18T20:39:55.898Z,0.0000
2023-04-18T20:40:56.660Z,0.0000
2023-04-18T20:41:57.537Z,0.0000
2023-04-18T20:42:58.429Z,0.0000
2023-04-18T20:43:59.198Z,0.0000
2023-04-18T20:44:59.956Z,0.0000
2023-04-18T20:46:00.764Z,0.0000
2023-04-18T20:47:01.541Z,0.0000
2023-04-18T20:48:02.614Z,0.0000
2023-04-18T20:49:03.372Z,0.0000
2023-04-18T20:50:04.176Z,0.0000
2023-04-18T20:51:04.979Z,0.0000
2023-04-18T20:52:05.769Z,0.0000
2023-04-18T20:53:06.529Z,0.0000
2023-04-18T20:54:07.305Z,0.0000
2023-04-18T20:55:08.089Z,0.0000
2023-04-18T20:56:08.951Z,0.0000
2023-04-18T20:57:09.714Z,0.0000
2023-04-18T20:58:10.523Z,0.0000
2023-04-18T20:59:11.310Z,0.0000
2023-04-18T21:00:12.068Z,0.0000
2023-04-18T21:01:12.898Z,0.0000
2023-04-18T21:02:13.795Z,0.0000
2023-04-18T21:03:14.667Z,0.0000
2023-04-18T21:04:15.923Z,0.0000
2023-04-18T21:05:17.557Z,0.0000
2023-04-18T21:06:18.326Z,0.0000
2023-04-18T21:07:19.097Z,0.0000
2023-04-18T21:08:20.145Z,0.0000
2023-04-18T21:09:20.936Z,0.0000
2023-04-18T21:10:21.701Z,0.0000
2023-04-18T21:11:22.453Z,0.0000
2023-04-18T21:12:23.248Z,0.0000
2023-04-18T21:13:24.035Z,0.0000
2023-04-18T21:14:24.824Z,0.0000
2023-04-18T21:15:25.872Z,0.0000
2023-04-18T21:16:26.699Z,0.0000
2023-04-18T21:17:27.473Z,0.0000
2023-04-18T21:18:28.514Z,0.0000
2023-04-18T21:19:29.299Z,0.0000
2023-04-18T21:20:30.117Z,0.0000
2023-04-18T21:21:30.910Z,0.0000
2023-04-18T21:22:31.663Z,0.0000
2023-04-18T21:23:32.458Z,0.0000
2023-04-18T21:24:33.212Z,0.0000
2023-04-18T21:25:34.225Z,0.0000
2023-04-18T21:26:35.021Z,0.0000
2023-04-18T21:27:35.802Z,0.0000
2023-04-18T21:28:36.790Z,0.0000
2023-04-18T21:29:37.553Z,0.0000
2023-04-18T21:30:38.345Z,0.0000
2023-04-18T21:31:39.171Z,0.0000
2023-04-18T21:32:39.927Z,0.0000
2023-04-18T21:33:40.691Z,0.0000
2023-04-18T21:34:42.420Z,0.0000
2023-04-18T21:35:43.187Z,0.0000
2023-04-18T21:36:44.002Z,0.0000
2023-04-18T21:37:44.754Z,0.0000
2023-04-18T21:38:45.533Z,0.0000
2023-04-18T21:39:46.311Z,0.0000
2023-04-18T21:40:47.080Z,0.0000
2023-04-18T21:41:47.858Z,0.0000
2023-04-18T21:42:49.881Z,0.0000
2023-04-18T21:43:50.732Z,0.0000
2023-04-18T21:44:51.489Z,0.0000
2023-04-18T21:45:52.366Z,0.0000
2023-04-18T21:46:53.114Z,0.0000
2023-04-18T21:47:54.166Z,0.0000
2023-04-18T21:48:54.916Z,0.0000
2023-04-18T21:49:55.708Z,0.0000
2023-04-18T21:50:56.712Z,0.0000
2023-04-18T21:51:57.486Z,0.0000
2023-04-18T21:52:58.290Z,0.0000
2023-04-18T21:53:59.080Z,0.0000
2023-04-18T21:54:59.860Z,0.0000
2023-04-18T21:56:00.640Z,0.0000
2023-04-18T21:57:01.423Z,0.0000
2023-04-18T21:58:03.226Z,0.0000
2023-04-18T21:59:04.023Z,0.0000
2023-04-18T22:00:04.778Z,0.0000
2023-04-18T22:01:05.847Z,0.0000
2023-04-18T22:02:06.845Z,0.0000
2023-04-18T22:03:07.901Z,0.0000
2023-04-18T22:04:08.884Z,0.0000
2023-04-18T22:05:09.765Z,0.0000
2023-04-18T22:06:10.558Z,0.0000
2023-04-18T22:07:11.340Z,0.0000
2023-04-18T22:08:12.155Z,0.0000
2023-04-18T22:09:12.967Z,0.0000
2023-04-18T22:10:13.747Z,0.0000
2023-04-18T22:11:14.526Z,0.0000
2023-04-18T22:12:15.301Z,0.0000
2023-04-18T22:13:16.103Z,0.0000
2023-04-18T22:14:17.019Z,0.0000
2023-04-18T22:15:17.801Z,0.0000
2023-04-18T22:16:18.829Z,0.0000
2023-04-18T22:17:19.628Z,0.0000
2023-04-18T22:18:20.420Z,0.0000
2023-04-18T22:19:21.230Z,0.0000
2023-04-18T22:20:22.022Z,0.0000
2023-04-18T22:21:22.823Z,0.0000
2023-04-18T22:22:23.668Z,0.0000
2023-04-18T22:23:24.491Z,0.0000
2023-04-18T22:24:25.289Z,0.0000
2023-04-18T22:25:26.104Z,0.0000
2023-04-18T22:26:26.915Z,0.0000
2023-04-18T22:27:27.719Z,0.0000
2023-04-18T22:28:28.787Z,0.0000
2023-04-18T22:29:29.583Z,0.0000
2023-04-18T22:30:30.473Z,0.0000
2023-04-18T22:31:31.388Z,0.0000
2023-04-18T22:32:32.200Z,0.0000
2023-04-18T22:33:32.955Z,0.0000
2023-04-18T22:34:33.787Z,0.0000
2023-04-18T22:35:34.622Z,0.0000
2023-04-18T22:36:35.982Z,0.0000
2023-04-18T22:37:36.772Z,0.0000
2023-04-18T22:38:37.590Z,0.0000
2023-04-18T22:39:38.422Z,0.0000
2023-04-18T22:40:39.241Z,0.0000
2023-04-18T22:41:40.089Z,0.0000
2023-04-18T22:42:40.891Z,0.0000
2023-04-18T22:43:41.735Z,0.0000
2023-04-18T22:44:42.553Z,0.0000
2023-04-18T22:45:43.435Z,0.0000
2023-04-18T22:46:44.281Z,0.0000
2023-04-18T22:47:45.250Z,0.0000
2023-04-18T22:48:46.138Z,0.0000
2023-04-18T22:49:46.925Z,0.0000
2023-04-18T22:50:47.723Z,0.0000
2023-04-18T22:51:48.586Z,0.0000
2023-04-18T22:52:49.437Z,0.0000
2023-04-18T22:53:50.288Z,0.0000
2023-04-18T22:54:51.135Z,0.0000
2023-04-18T22:55:52.164Z,0.0000
2023-04-18T22:56:52.991Z,0.0000
2023-04-18T22:57:53.795Z,0.0000
2023-04-18T22:58:54.633Z,0.0000
2023-04-18T22:59:55.425Z,0.0000
2023-04-18T23:00:56.254Z,0.0000
2023-04-18T23:01:57.138Z,0.0000
2023-04-18T23:02:58.361Z,0.0000
2023-04-18T23:03:59.266Z,0.0000
2023-04-18T23:05:00.144Z,0.0000
2023-04-18T23:06:01.036Z,0.0000
2023-04-18T23:07:01.881Z,0.0000
2023-04-18T23:08:02.991Z,0.0000
2023-04-18T23:09:03.904Z,0.0000
2023-04-18T23:10:04.725Z,0.0000
2023-04-18T23:11:05.551Z,0.0000
2023-04-18T23:12:06.406Z,0.0000
2023-04-18T23:13:07.232Z,0.0000
2023-04-18T23:14:08.035Z,0.0000
2023-04-18T23:15:08.874Z,0.0000
2023-04-18T23:16:09.942Z,0.0000
2023-04-18T23:17:10.824Z,0.0000
2023-04-18T23:18:11.892Z,0.0000
2023-04-18T23:19:12.722Z,0.0000
2023-04-18T23:20:13.557Z,0.0000
2023-04-18T23:21:14.353Z,0.0000
2023-04-18T23:22:15.154Z,0.0000
2023-04-18T23:23:15.976Z,0.0000
2023-04-18T23:24:16.962Z,0.0000
2023-04-18T23:25:17.838Z,0.0000
2023-04-18T23:26:18.920Z,0.0000
2023-04-18T23:27:19.782Z,0.0000
2023-04-18T23:28:20.736Z,0.0000
2023-04-18T23:29:21.517Z,0.0000
2023-04-18T23:30:22.353Z,0.0000
2023-04-18T23:31:23.193Z,0.0000
2023-04-18T23:32:24.108Z,0.0000
2023-04-18T23:33:24.944Z,0.0000
2023-04-18T23:34:25.741Z,0.0000
2023-04-18T23:35:26.534Z,0.0000
2023-04-18T23:36:27.379Z,0.0000
2023-04-18T23:37:28.213Z,0.0000
2023-04-18T23:38:29.016Z,0.0000
2023-04-18T23:39:29.829Z,0.0000
2023-04-18T23:40:30.668Z,0.0000
2023-04-18T23:41:31.470Z,0.0000
2023-04-18T23:42:32.293Z,0.0000
2023-04-18T23:43:33.347Z,0.0000
2023-04-18T23:44:34.175Z,0.0000
2023-04-18T23:45:35.011Z,0.0000
2023-04-18T23:46:36.704Z,0.0000
2023-04-18T23:47:37.643Z,0.0000
2023-04-18T23:48:40.208Z,0.0000
2023-04-18T23:49:41.014Z,0.0000
2023-04-18T23:50:41.853Z,0.0000
2023-04-18T23:51:42.676Z,0.0000
2023-04-18T23:52:43.546Z,0.0000
2023-04-18T23:53:44.651Z,0.0000
2023-04-18T23:54:45.474Z,0.0000
2023-04-18T23:55:46.288Z,0.0000
2023-04-18T23:56:47.099Z,0.0000
2023-04-18T23:57:47.951Z,0.0000
2023-04-18T23:58:48.774Z,0.0000
2023-04-18T23:59:49.584Z,0.0000
